Airport View

Enter AWOS ICAO identifier for current METAR.

ex. KFNL

KMYJ 202335Z AUTO 00000KT 2 1/2SM TS BKN004 OVC010 09/09 A2999 RMK AO2 P0001 LTG DSNT ALQS

20 Oct 2020 23:38

Frequency: 120.575

Phone: 573-581-7868

Other Area AWOS: KCOU - KMBY - KJEF - KHAE

TAF AMD KCOU 202215Z 2022/2118 12006KT 2SM -SHRA BR VCTS OVC003CB FM210400 29007KT 3SM BR VCSH OVC003 FM210800 34005KT P6SM OVC010 FM211200 04005KT P6SM VCSH OVC015 FM211600 VRB04KT P6SM BKN020